sensor_id;sensor_type;location;lat;lon;timestamp;P1;durP1;ratioP1;P2;durP2;ratioP2
15689;SDS011;7945;48.816;11.506;2022-10-16T00:00:29;0.60;;;0.60;;
15689;SDS011;7945;48.816;11.506;2022-10-16T00:02:56;0.52;;;0.52;;
15689;SDS011;7945;48.816;11.506;2022-10-16T00:05:23;0.50;;;0.50;;
15689;SDS011;7945;48.816;11.506;2022-10-16T00:07:51;0.60;;;0.60;;
15689;SDS011;7945;48.816;11.506;2022-10-16T00:10:18;0.60;;;0.60;;
15689;SDS011;7945;48.816;11.506;2022-10-16T00:12:45;0.50;;;0.50;;
15689;SDS011;7945;48.816;11.506;2022-10-16T00:15:12;0.50;;;0.50;;
15689;SDS011;7945;48.816;11.506;2022-10-16T00:17:39;0.60;;;0.60;;
15689;SDS011;7945;48.816;11.506;2022-10-16T00:20:06;0.60;;;0.60;;
15689;SDS011;7945;48.816;11.506;2022-10-16T00:22:33;0.55;;;0.55;;
15689;SDS011;7945;48.816;11.506;2022-10-16T00:25:02;0.50;;;0.50;;
15689;SDS011;7945;48.816;11.506;2022-10-16T00:27:29;0.60;;;0.60;;
15689;SDS011;7945;48.816;11.506;2022-10-16T00:29:56;0.50;;;0.50;;
15689;SDS011;7945;48.816;11.506;2022-10-16T00:32:23;0.50;;;0.50;;
15689;SDS011;7945;48.816;11.506;2022-10-16T00:34:49;0.50;;;0.50;;
15689;SDS011;7945;48.816;11.506;2022-10-16T00:37:18;0.57;;;0.57;;
15689;SDS011;7945;48.816;11.506;2022-10-16T00:39:44;0.50;;;0.50;;
15689;SDS011;7945;48.816;11.506;2022-10-16T00:42:14;0.60;;;0.60;;
15689;SDS011;7945;48.816;11.506;2022-10-16T00:44:43;0.50;;;0.50;;
15689;SDS011;7945;48.816;11.506;2022-10-16T00:47:13;0.50;;;0.50;;
15689;SDS011;7945;48.816;11.506;2022-10-16T00:49:44;0.60;;;0.60;;
15689;SDS011;7945;48.816;11.506;2022-10-16T00:52:13;0.50;;;0.50;;
15689;SDS011;7945;48.816;11.506;2022-10-16T00:54:41;0.50;;;0.50;;
15689;SDS011;7945;48.816;11.506;2022-10-16T00:57:08;0.50;;;0.50;;
15689;SDS011;7945;48.816;11.506;2022-10-16T00:59:37;0.50;;;0.50;;
15689;SDS011;7945;48.816;11.506;2022-10-16T01:02:06;0.50;;;0.50;;
15689;SDS011;7945;48.816;11.506;2022-10-16T01:04:35;0.52;;;0.52;;
15689;SDS011;7945;48.816;11.506;2022-10-16T01:07:06;0.50;;;0.50;;
15689;SDS011;7945;48.816;11.506;2022-10-16T01:09:43;0.60;;;0.60;;
15689;SDS011;7945;48.816;11.506;2022-10-16T01:12:19;0.60;;;0.60;;
15689;SDS011;7945;48.816;11.506;2022-10-16T01:14:56;0.50;;;0.50;;
15689;SDS011;7945;48.816;11.506;2022-10-16T01:17:28;0.50;;;0.50;;
15689;SDS011;7945;48.816;11.506;2022-10-16T01:20:03;0.55;;;0.55;;
15689;SDS011;7945;48.816;11.506;2022-10-16T01:22:38;0.55;;;0.55;;
15689;SDS011;7945;48.816;11.506;2022-10-16T01:25:16;0.60;;;0.60;;
15689;SDS011;7945;48.816;11.506;2022-10-16T01:30:55;0.57;;;0.57;;
15689;SDS011;7945;48.816;11.506;2022-10-16T01:33:26;0.60;;;0.60;;
15689;SDS011;7945;48.816;11.506;2022-10-16T01:35:58;0.60;;;0.60;;
15689;SDS011;7945;48.816;11.506;2022-10-16T01:38:29;0.55;;;0.55;;
15689;SDS011;7945;48.816;11.506;2022-10-16T01:41:00;0.50;;;0.50;;
15689;SDS011;7945;48.816;11.506;2022-10-16T01:43:33;0.40;;;0.40;;
15689;SDS011;7945;48.816;11.506;2022-10-16T01:46:03;0.50;;;0.50;;
15689;SDS011;7945;48.816;11.506;2022-10-16T01:48:31;0.50;;;0.50;;
15689;SDS011;7945;48.816;11.506;2022-10-16T01:51:02;0.50;;;0.50;;
15689;SDS011;7945;48.816;11.506;2022-10-16T01:53:31;0.50;;;0.50;;
15689;SDS011;7945;48.816;11.506;2022-10-16T01:55:59;0.60;;;0.60;;
15689;SDS011;7945;48.816;11.506;2022-10-16T01:58:28;0.50;;;0.50;;
15689;SDS011;7945;48.816;11.506;2022-10-16T02:01:00;0.60;;;0.60;;
15689;SDS011;7945;48.816;11.506;2022-10-16T02:03:28;0.50;;;0.50;;
15689;SDS011;7945;48.816;11.506;2022-10-16T02:05:56;0.60;;;0.60;;
15689;SDS011;7945;48.816;11.506;2022-10-16T02:08:24;0.50;;;0.50;;
15689;SDS011;7945;48.816;11.506;2022-10-16T02:10:54;0.50;;;0.50;;
15689;SDS011;7945;48.816;11.506;2022-10-16T02:13:22;0.75;;;0.75;;
15689;SDS011;7945;48.816;11.506;2022-10-16T02:15:55;0.60;;;0.60;;
15689;SDS011;7945;48.816;11.506;2022-10-16T02:18:22;0.50;;;0.50;;
15689;SDS011;7945;48.816;11.506;2022-10-16T02:20:52;0.50;;;0.50;;
15689;SDS011;7945;48.816;11.506;2022-10-16T02:23:24;0.60;;;0.60;;
15689;SDS011;7945;48.816;11.506;2022-10-16T02:25:59;0.60;;;0.60;;
15689;SDS011;7945;48.816;11.506;2022-10-16T02:28:31;0.50;;;0.50;;
15689;SDS011;7945;48.816;11.506;2022-10-16T02:31:06;0.60;;;0.60;;
15689;SDS011;7945;48.816;11.506;2022-10-16T02:33:37;0.60;;;0.60;;
15689;SDS011;7945;48.816;11.506;2022-10-16T02:36:06;0.50;;;0.50;;
15689;SDS011;7945;48.816;11.506;2022-10-16T02:38:33;0.50;;;0.50;;
15689;SDS011;7945;48.816;11.506;2022-10-16T02:41:01;0.50;;;0.50;;
15689;SDS011;7945;48.816;11.506;2022-10-16T02:43:29;0.50;;;0.50;;
15689;SDS011;7945;48.816;11.506;2022-10-16T02:45:56;0.50;;;0.50;;
15689;SDS011;7945;48.816;11.506;2022-10-16T02:48:24;0.60;;;0.60;;
15689;SDS011;7945;48.816;11.506;2022-10-16T02:50:51;0.55;;;0.55;;
15689;SDS011;7945;48.816;11.506;2022-10-16T02:53:18;0.60;;;0.60;;
15689;SDS011;7945;48.816;11.506;2022-10-16T02:55:44;0.50;;;0.50;;
15689;SDS011;7945;48.816;11.506;2022-10-16T02:58:11;0.55;;;0.55;;
15689;SDS011;7945;48.816;11.506;2022-10-16T03:00:38;0.50;;;0.50;;
15689;SDS011;7945;48.816;11.506;2022-10-16T03:03:05;0.50;;;0.50;;
15689;SDS011;7945;48.816;11.506;2022-10-16T03:05:33;0.50;;;0.50;;
15689;SDS011;7945;48.816;11.506;2022-10-16T03:08:00;0.55;;;0.55;;
15689;SDS011;7945;48.816;11.506;2022-10-16T03:10:26;0.60;;;0.60;;
15689;SDS011;7945;48.816;11.506;2022-10-16T03:12:53;0.60;;;0.60;;
15689;SDS011;7945;48.816;11.506;2022-10-16T03:15:20;0.50;;;0.50;;
15689;SDS011;7945;48.816;11.506;2022-10-16T03:17:47;0.50;;;0.50;;
15689;SDS011;7945;48.816;11.506;2022-10-16T03:20:14;0.50;;;0.50;;
15689;SDS011;7945;48.816;11.506;2022-10-16T03:22:42;0.60;;;0.60;;
15689;SDS011;7945;48.816;11.506;2022-10-16T03:25:09;0.60;;;0.60;;
15689;SDS011;7945;48.816;11.506;2022-10-16T03:27:36;0.60;;;0.60;;
15689;SDS011;7945;48.816;11.506;2022-10-16T03:30:03;0.60;;;0.60;;
15689;SDS011;7945;48.816;11.506;2022-10-16T03:32:30;0.50;;;0.50;;
15689;SDS011;7945;48.816;11.506;2022-10-16T03:34:57;0.50;;;0.50;;
15689;SDS011;7945;48.816;11.506;2022-10-16T03:37:23;0.60;;;0.60;;
15689;SDS011;7945;48.816;11.506;2022-10-16T03:39:52;0.50;;;0.50;;
15689;SDS011;7945;48.816;11.506;2022-10-16T03:42:18;0.60;;;0.60;;
15689;SDS011;7945;48.816;11.506;2022-10-16T03:44:45;0.50;;;0.50;;
15689;SDS011;7945;48.816;11.506;2022-10-16T03:47:12;0.55;;;0.55;;
15689;SDS011;7945;48.816;11.506;2022-10-16T03:49:39;0.50;;;0.50;;
15689;SDS011;7945;48.816;11.506;2022-10-16T03:52:06;0.60;;;0.60;;
15689;SDS011;7945;48.816;11.506;2022-10-16T03:54:33;0.60;;;0.60;;
15689;SDS011;7945;48.816;11.506;2022-10-16T03:57:01;0.50;;;0.50;;
15689;SDS011;7945;48.816;11.506;2022-10-16T03:59:28;0.50;;;0.50;;
15689;SDS011;7945;48.816;11.506;2022-10-16T04:01:54;0.57;;;0.57;;
15689;SDS011;7945;48.816;11.506;2022-10-16T04:04:21;0.50;;;0.50;;
15689;SDS011;7945;48.816;11.506;2022-10-16T04:06:48;0.60;;;0.60;;
15689;SDS011;7945;48.816;11.506;2022-10-16T04:09:15;0.60;;;0.60;;
15689;SDS011;7945;48.816;11.506;2022-10-16T04:11:41;0.50;;;0.50;;
15689;SDS011;7945;48.816;11.506;2022-10-16T04:14:10;0.50;;;0.50;;
15689;SDS011;7945;48.816;11.506;2022-10-16T04:16:36;0.60;;;0.60;;
15689;SDS011;7945;48.816;11.506;2022-10-16T04:19:03;0.50;;;0.50;;
15689;SDS011;7945;48.816;11.506;2022-10-16T04:21:30;0.50;;;0.50;;
15689;SDS011;7945;48.816;11.506;2022-10-16T04:23:56;0.60;;;0.60;;
15689;SDS011;7945;48.816;11.506;2022-10-16T04:26:23;0.55;;;0.55;;
15689;SDS011;7945;48.816;11.506;2022-10-16T04:28:50;0.50;;;0.50;;
15689;SDS011;7945;48.816;11.506;2022-10-16T04:31:18;0.57;;;0.57;;
15689;SDS011;7945;48.816;11.506;2022-10-16T04:33:45;0.60;;;0.60;;
15689;SDS011;7945;48.816;11.506;2022-10-16T04:36:11;0.50;;;0.50;;
15689;SDS011;7945;48.816;11.506;2022-10-16T04:38:39;0.55;;;0.55;;
15689;SDS011;7945;48.816;11.506;2022-10-16T04:41:06;0.60;;;0.60;;
15689;SDS011;7945;48.816;11.506;2022-10-16T04:43:33;0.50;;;0.50;;
15689;SDS011;7945;48.816;11.506;2022-10-16T04:46:00;0.60;;;0.60;;
15689;SDS011;7945;48.816;11.506;2022-10-16T04:48:30;0.60;;;0.60;;
15689;SDS011;7945;48.816;11.506;2022-10-16T04:50:57;0.50;;;0.50;;
15689;SDS011;7945;48.816;11.506;2022-10-16T04:53:24;0.60;;;0.60;;
15689;SDS011;7945;48.816;11.506;2022-10-16T04:55:51;0.50;;;0.50;;
15689;SDS011;7945;48.816;11.506;2022-10-16T04:58:18;0.40;;;0.40;;
15689;SDS011;7945;48.816;11.506;2022-10-16T05:00:44;0.60;;;0.60;;
15689;SDS011;7945;48.816;11.506;2022-10-16T05:03:12;0.50;;;0.50;;
15689;SDS011;7945;48.816;11.506;2022-10-16T05:05:43;0.50;;;0.50;;
15689;SDS011;7945;48.816;11.506;2022-10-16T05:08:11;0.65;;;0.65;;
15689;SDS011;7945;48.816;11.506;2022-10-16T05:10:38;0.50;;;0.50;;
15689;SDS011;7945;48.816;11.506;2022-10-16T05:13:05;0.50;;;0.50;;
15689;SDS011;7945;48.816;11.506;2022-10-16T05:15:32;0.55;;;0.55;;
15689;SDS011;7945;48.816;11.506;2022-10-16T05:17:59;0.57;;;0.57;;
15689;SDS011;7945;48.816;11.506;2022-10-16T05:20:26;0.57;;;0.57;;
15689;SDS011;7945;48.816;11.506;2022-10-16T05:22:54;0.50;;;0.50;;
15689;SDS011;7945;48.816;11.506;2022-10-16T05:25:21;0.50;;;0.50;;
15689;SDS011;7945;48.816;11.506;2022-10-16T05:27:48;0.60;;;0.60;;
15689;SDS011;7945;48.816;11.506;2022-10-16T05:30:15;0.60;;;0.60;;
15689;SDS011;7945;48.816;11.506;2022-10-16T05:32:45;0.60;;;0.60;;
15689;SDS011;7945;48.816;11.506;2022-10-16T05:35:13;0.60;;;0.60;;
15689;SDS011;7945;48.816;11.506;2022-10-16T05:37:39;0.50;;;0.50;;
15689;SDS011;7945;48.816;11.506;2022-10-16T05:40:08;0.50;;;0.50;;
15689;SDS011;7945;48.816;11.506;2022-10-16T05:42:36;0.60;;;0.60;;
15689;SDS011;7945;48.816;11.506;2022-10-16T05:45:03;0.60;;;0.60;;
15689;SDS011;7945;48.816;11.506;2022-10-16T05:47:31;0.60;;;0.60;;
15689;SDS011;7945;48.816;11.506;2022-10-16T05:49:57;0.50;;;0.50;;
15689;SDS011;7945;48.816;11.506;2022-10-16T05:52:24;0.50;;;0.50;;
15689;SDS011;7945;48.816;11.506;2022-10-16T05:54:52;0.50;;;0.50;;
15689;SDS011;7945;48.816;11.506;2022-10-16T05:57:20;0.50;;;0.50;;
15689;SDS011;7945;48.816;11.506;2022-10-16T05:59:47;1.15;;;1.15;;
15689;SDS011;7945;48.816;11.506;2022-10-16T06:02:14;0.50;;;0.50;;
15689;SDS011;7945;48.816;11.506;2022-10-16T06:04:40;0.60;;;0.60;;
15689;SDS011;7945;48.816;11.506;2022-10-16T06:07:07;0.50;;;0.50;;
15689;SDS011;7945;48.816;11.506;2022-10-16T06:09:34;0.55;;;0.55;;
15689;SDS011;7945;48.816;11.506;2022-10-16T06:14:47;0.60;;;0.60;;
15689;SDS011;7945;48.816;11.506;2022-10-16T06:17:14;0.52;;;0.52;;
15689;SDS011;7945;48.816;11.506;2022-10-16T06:19:41;0.50;;;0.50;;
15689;SDS011;7945;48.816;11.506;2022-10-16T06:22:07;0.50;;;0.50;;
15689;SDS011;7945;48.816;11.506;2022-10-16T06:24:34;0.60;;;0.60;;
15689;SDS011;7945;48.816;11.506;2022-10-16T06:27:02;0.55;;;0.55;;
15689;SDS011;7945;48.816;11.506;2022-10-16T06:29:29;0.50;;;0.50;;
15689;SDS011;7945;48.816;11.506;2022-10-16T06:31:57;0.60;;;0.60;;
15689;SDS011;7945;48.816;11.506;2022-10-16T06:34:24;0.60;;;0.60;;
15689;SDS011;7945;48.816;11.506;2022-10-16T06:36:50;0.70;;;0.70;;
15689;SDS011;7945;48.816;11.506;2022-10-16T06:39:17;0.60;;;0.60;;
15689;SDS011;7945;48.816;11.506;2022-10-16T06:41:44;0.60;;;0.60;;
15689;SDS011;7945;48.816;11.506;2022-10-16T06:44:11;0.60;;;0.60;;
15689;SDS011;7945;48.816;11.506;2022-10-16T06:46:37;0.60;;;0.60;;
15689;SDS011;7945;48.816;11.506;2022-10-16T06:49:05;0.65;;;0.65;;
15689;SDS011;7945;48.816;11.506;2022-10-16T06:51:32;0.60;;;0.60;;
15689;SDS011;7945;48.816;11.506;2022-10-16T06:54:01;0.60;;;0.60;;
15689;SDS011;7945;48.816;11.506;2022-10-16T06:56:28;0.60;;;0.60;;
15689;SDS011;7945;48.816;11.506;2022-10-16T06:58:55;0.50;;;0.50;;
15689;SDS011;7945;48.816;11.506;2022-10-16T07:01:23;0.50;;;0.50;;
15689;SDS011;7945;48.816;11.506;2022-10-16T07:03:50;0.60;;;0.60;;
15689;SDS011;7945;48.816;11.506;2022-10-16T07:06:20;0.50;;;0.50;;
15689;SDS011;7945;48.816;11.506;2022-10-16T07:08:48;0.50;;;0.50;;
15689;SDS011;7945;48.816;11.506;2022-10-16T07:11:15;0.50;;;0.50;;
15689;SDS011;7945;48.816;11.506;2022-10-16T07:13:43;0.60;;;0.60;;
15689;SDS011;7945;48.816;11.506;2022-10-16T07:16:12;0.50;;;0.50;;
15689;SDS011;7945;48.816;11.506;2022-10-16T07:18:40;0.50;;;0.50;;
15689;SDS011;7945;48.816;11.506;2022-10-16T07:21:08;0.50;;;0.50;;
15689;SDS011;7945;48.816;11.506;2022-10-16T07:23:37;0.50;;;0.50;;
15689;SDS011;7945;48.816;11.506;2022-10-16T07:26:04;0.50;;;0.50;;
15689;SDS011;7945;48.816;11.506;2022-10-16T07:28:32;0.50;;;0.50;;
15689;SDS011;7945;48.816;11.506;2022-10-16T07:31:00;0.60;;;0.60;;
15689;SDS011;7945;48.816;11.506;2022-10-16T07:33:27;0.50;;;0.50;;
15689;SDS011;7945;48.816;11.506;2022-10-16T07:35:54;0.50;;;0.50;;
15689;SDS011;7945;48.816;11.506;2022-10-16T07:38:21;0.55;;;0.55;;
15689;SDS011;7945;48.816;11.506;2022-10-16T07:40:56;0.57;;;0.57;;
15689;SDS011;7945;48.816;11.506;2022-10-16T07:43:24;0.52;;;0.52;;
15689;SDS011;7945;48.816;11.506;2022-10-16T07:45:51;0.50;;;0.50;;
15689;SDS011;7945;48.816;11.506;2022-10-16T07:48:18;0.50;;;0.50;;
15689;SDS011;7945;48.816;11.506;2022-10-16T07:50:45;0.50;;;0.50;;
15689;SDS011;7945;48.816;11.506;2022-10-16T07:53:12;0.50;;;0.50;;
15689;SDS011;7945;48.816;11.506;2022-10-16T07:55:39;0.50;;;0.50;;
15689;SDS011;7945;48.816;11.506;2022-10-16T07:58:07;0.70;;;0.70;;
15689;SDS011;7945;48.816;11.506;2022-10-16T08:00:35;0.50;;;0.50;;
15689;SDS011;7945;48.816;11.506;2022-10-16T08:03:02;0.60;;;0.60;;
15689;SDS011;7945;48.816;11.506;2022-10-16T08:05:30;0.50;;;0.50;;
15689;SDS011;7945;48.816;11.506;2022-10-16T08:07:58;0.50;;;0.50;;
15689;SDS011;7945;48.816;11.506;2022-10-16T08:10:25;0.50;;;0.50;;
15689;SDS011;7945;48.816;11.506;2022-10-16T08:12:53;0.50;;;0.50;;
15689;SDS011;7945;48.816;11.506;2022-10-16T08:15:21;0.50;;;0.50;;
15689;SDS011;7945;48.816;11.506;2022-10-16T08:17:55;0.60;;;0.60;;
15689;SDS011;7945;48.816;11.506;2022-10-16T08:20:22;0.50;;;0.50;;
15689;SDS011;7945;48.816;11.506;2022-10-16T08:22:49;0.45;;;0.45;;
15689;SDS011;7945;48.816;11.506;2022-10-16T08:25:16;0.50;;;0.50;;
15689;SDS011;7945;48.816;11.506;2022-10-16T08:27:43;0.50;;;0.50;;
15689;SDS011;7945;48.816;11.506;2022-10-16T08:30:10;0.47;;;0.47;;
15689;SDS011;7945;48.816;11.506;2022-10-16T08:32:39;0.50;;;0.50;;
15689;SDS011;7945;48.816;11.506;2022-10-16T08:35:07;0.50;;;0.50;;
15689;SDS011;7945;48.816;11.506;2022-10-16T08:37:35;0.50;;;0.50;;
15689;SDS011;7945;48.816;11.506;2022-10-16T08:40:02;0.50;;;0.50;;
15689;SDS011;7945;48.816;11.506;2022-10-16T08:42:44;0.50;;;0.50;;
15689;SDS011;7945;48.816;11.506;2022-10-16T08:45:24;0.50;;;0.50;;
15689;SDS011;7945;48.816;11.506;2022-10-16T08:48:06;0.40;;;0.40;;
15689;SDS011;7945;48.816;11.506;2022-10-16T08:50:41;0.40;;;0.40;;
15689;SDS011;7945;48.816;11.506;2022-10-16T08:53:09;0.50;;;0.50;;
15689;SDS011;7945;48.816;11.506;2022-10-16T08:55:41;0.50;;;0.50;;
15689;SDS011;7945;48.816;11.506;2022-10-16T08:58:11;0.40;;;0.40;;
15689;SDS011;7945;48.816;11.506;2022-10-16T09:00:39;0.40;;;0.40;;
15689;SDS011;7945;48.816;11.506;2022-10-16T09:03:12;0.50;;;0.50;;
15689;SDS011;7945;48.816;11.506;2022-10-16T09:06:00;0.40;;;0.40;;
15689;SDS011;7945;48.816;11.506;2022-10-16T09:08:56;0.40;;;0.40;;
15689;SDS011;7945;48.816;11.506;2022-10-16T09:11:36;0.40;;;0.40;;
15689;SDS011;7945;48.816;11.506;2022-10-16T09:14:17;0.40;;;0.40;;
15689;SDS011;7945;48.816;11.506;2022-10-16T09:17:03;0.40;;;0.40;;
15689;SDS011;7945;48.816;11.506;2022-10-16T09:19:43;0.40;;;0.40;;
15689;SDS011;7945;48.816;11.506;2022-10-16T09:22:14;0.40;;;0.40;;
15689;SDS011;7945;48.816;11.506;2022-10-16T09:24:42;0.30;;;0.30;;
15689;SDS011;7945;48.816;11.506;2022-10-16T09:27:09;0.40;;;0.40;;
15689;SDS011;7945;48.816;11.506;2022-10-16T09:29:37;0.50;;;0.50;;
15689;SDS011;7945;48.816;11.506;2022-10-16T09:32:08;0.30;;;0.30;;
15689;SDS011;7945;48.816;11.506;2022-10-16T09:34:39;0.40;;;0.40;;
15689;SDS011;7945;48.816;11.506;2022-10-16T09:37:12;0.30;;;0.30;;
15689;SDS011;7945;48.816;11.506;2022-10-16T09:39:44;0.32;;;0.32;;
15689;SDS011;7945;48.816;11.506;2022-10-16T09:42:11;0.38;;;0.38;;
15689;SDS011;7945;48.816;11.506;2022-10-16T09:44:41;0.40;;;0.40;;
15689;SDS011;7945;48.816;11.506;2022-10-16T09:47:12;0.30;;;0.30;;
15689;SDS011;7945;48.816;11.506;2022-10-16T09:49:51;0.30;;;0.30;;
15689;SDS011;7945;48.816;11.506;2022-10-16T09:52:19;0.40;;;0.40;;
15689;SDS011;7945;48.816;11.506;2022-10-16T09:54:49;0.35;;;0.35;;
15689;SDS011;7945;48.816;11.506;2022-10-16T09:57:17;0.30;;;0.30;;
15689;SDS011;7945;48.816;11.506;2022-10-16T09:59:47;0.30;;;0.30;;
15689;SDS011;7945;48.816;11.506;2022-10-16T10:02:16;0.40;;;0.40;;
15689;SDS011;7945;48.816;11.506;2022-10-16T10:04:47;0.40;;;0.40;;
15689;SDS011;7945;48.816;11.506;2022-10-16T10:07:18;0.30;;;0.30;;
15689;SDS011;7945;48.816;11.506;2022-10-16T10:09:50;0.30;;;0.30;;
15689;SDS011;7945;48.816;11.506;2022-10-16T10:12:17;0.40;;;0.40;;
15689;SDS011;7945;48.816;11.506;2022-10-16T10:14:47;0.40;;;0.40;;
15689;SDS011;7945;48.816;11.506;2022-10-16T10:17:15;0.40;;;0.40;;
15689;SDS011;7945;48.816;11.506;2022-10-16T10:19:51;0.30;;;0.30;;
15689;SDS011;7945;48.816;11.506;2022-10-16T10:22:29;0.40;;;0.40;;
15689;SDS011;7945;48.816;11.506;2022-10-16T10:24:57;0.40;;;0.40;;
15689;SDS011;7945;48.816;11.506;2022-10-16T10:27:43;0.40;;;0.40;;
15689;SDS011;7945;48.816;11.506;2022-10-16T10:30:20;0.40;;;0.40;;
15689;SDS011;7945;48.816;11.506;2022-10-16T10:32:55;0.47;;;0.47;;
15689;SDS011;7945;48.816;11.506;2022-10-16T10:35:36;0.30;;;0.30;;
15689;SDS011;7945;48.816;11.506;2022-10-16T10:38:19;0.30;;;0.30;;
15689;SDS011;7945;48.816;11.506;2022-10-16T10:40:59;0.40;;;0.40;;
15689;SDS011;7945;48.816;11.506;2022-10-16T10:43:40;0.30;;;0.30;;
15689;SDS011;7945;48.816;11.506;2022-10-16T10:46:20;0.30;;;0.30;;
15689;SDS011;7945;48.816;11.506;2022-10-16T10:49:01;0.30;;;0.30;;
15689;SDS011;7945;48.816;11.506;2022-10-16T10:51:39;0.30;;;0.30;;
15689;SDS011;7945;48.816;11.506;2022-10-16T10:54:20;0.40;;;0.40;;
15689;SDS011;7945;48.816;11.506;2022-10-16T10:56:51;0.38;;;0.38;;
15689;SDS011;7945;48.816;11.506;2022-10-16T10:59:28;0.30;;;0.30;;
15689;SDS011;7945;48.816;11.506;2022-10-16T11:02:13;0.30;;;0.30;;
15689;SDS011;7945;48.816;11.506;2022-10-16T11:07:45;0.35;;;0.35;;
15689;SDS011;7945;48.816;11.506;2022-10-16T11:10:18;0.40;;;0.40;;
15689;SDS011;7945;48.816;11.506;2022-10-16T11:12:49;0.30;;;0.30;;
15689;SDS011;7945;48.816;11.506;2022-10-16T11:15:21;0.30;;;0.30;;
15689;SDS011;7945;48.816;11.506;2022-10-16T11:17:53;0.30;;;0.30;;
15689;SDS011;7945;48.816;11.506;2022-10-16T11:20:25;0.30;;;0.30;;
15689;SDS011;7945;48.816;11.506;2022-10-16T11:22:55;0.40;;;0.40;;
15689;SDS011;7945;48.816;11.506;2022-10-16T11:25:28;0.30;;;0.30;;
15689;SDS011;7945;48.816;11.506;2022-10-16T11:27:57;0.40;;;0.40;;
15689;SDS011;7945;48.816;11.506;2022-10-16T11:30:28;0.30;;;0.30;;
15689;SDS011;7945;48.816;11.506;2022-10-16T11:33:00;0.30;;;0.30;;
15689;SDS011;7945;48.816;11.506;2022-10-16T11:35:39;0.30;;;0.30;;
15689;SDS011;7945;48.816;11.506;2022-10-16T11:38:12;0.30;;;0.30;;
15689;SDS011;7945;48.816;11.506;2022-10-16T11:40:49;0.30;;;0.30;;
15689;SDS011;7945;48.816;11.506;2022-10-16T11:43:20;0.30;;;0.30;;
15689;SDS011;7945;48.816;11.506;2022-10-16T11:45:51;0.30;;;0.30;;
15689;SDS011;7945;48.816;11.506;2022-10-16T11:48:23;0.40;;;0.40;;
15689;SDS011;7945;48.816;11.506;2022-10-16T11:50:53;0.40;;;0.40;;
15689;SDS011;7945;48.816;11.506;2022-10-16T11:53:28;0.30;;;0.30;;
15689;SDS011;7945;48.816;11.506;2022-10-16T11:56:05;0.43;;;0.43;;
15689;SDS011;7945;48.816;11.506;2022-10-16T11:58:33;0.40;;;0.40;;
15689;SDS011;7945;48.816;11.506;2022-10-16T12:01:07;0.32;;;0.32;;
15689;SDS011;7945;48.816;11.506;2022-10-16T12:03:44;0.40;;;0.40;;
15689;SDS011;7945;48.816;11.506;2022-10-16T12:06:18;0.40;;;0.40;;
15689;SDS011;7945;48.816;11.506;2022-10-16T12:08:57;0.30;;;0.30;;
15689;SDS011;7945;48.816;11.506;2022-10-16T12:11:34;0.30;;;0.30;;
15689;SDS011;7945;48.816;11.506;2022-10-16T12:14:07;0.35;;;0.35;;
15689;SDS011;7945;48.816;11.506;2022-10-16T12:16:51;0.30;;;0.30;;
15689;SDS011;7945;48.816;11.506;2022-10-16T12:19:19;0.30;;;0.30;;
15689;SDS011;7945;48.816;11.506;2022-10-16T12:21:47;0.30;;;0.30;;
15689;SDS011;7945;48.816;11.506;2022-10-16T12:24:22;0.30;;;0.30;;
15689;SDS011;7945;48.816;11.506;2022-10-16T12:26:58;0.30;;;0.30;;
15689;SDS011;7945;48.816;11.506;2022-10-16T12:29:28;0.30;;;0.30;;
15689;SDS011;7945;48.816;11.506;2022-10-16T12:32:00;0.30;;;0.30;;
15689;SDS011;7945;48.816;11.506;2022-10-16T12:34:28;0.30;;;0.30;;
15689;SDS011;7945;48.816;11.506;2022-10-16T12:37:07;0.30;;;0.30;;
15689;SDS011;7945;48.816;11.506;2022-10-16T12:39:37;0.30;;;0.30;;
15689;SDS011;7945;48.816;11.506;2022-10-16T12:42:17;0.30;;;0.30;;
15689;SDS011;7945;48.816;11.506;2022-10-16T12:44:47;0.38;;;0.38;;
15689;SDS011;7945;48.816;11.506;2022-10-16T12:47:22;0.30;;;0.30;;
15689;SDS011;7945;48.816;11.506;2022-10-16T12:49:50;0.20;;;0.20;;
15689;SDS011;7945;48.816;11.506;2022-10-16T12:52:26;0.30;;;0.30;;
15689;SDS011;7945;48.816;11.506;2022-10-16T12:54:55;0.30;;;0.30;;
15689;SDS011;7945;48.816;11.506;2022-10-16T12:57:30;0.30;;;0.30;;
15689;SDS011;7945;48.816;11.506;2022-10-16T13:00:09;0.30;;;0.30;;
15689;SDS011;7945;48.816;11.506;2022-10-16T13:02:49;0.30;;;0.30;;
15689;SDS011;7945;48.816;11.506;2022-10-16T13:05:43;0.30;;;0.30;;
15689;SDS011;7945;48.816;11.506;2022-10-16T13:08:29;0.30;;;0.30;;
15689;SDS011;7945;48.816;11.506;2022-10-16T13:11:07;0.30;;;0.30;;
15689;SDS011;7945;48.816;11.506;2022-10-16T13:13:56;0.30;;;0.30;;
15689;SDS011;7945;48.816;11.506;2022-10-16T13:16:35;0.30;;;0.30;;
15689;SDS011;7945;48.816;11.506;2022-10-16T13:19:16;0.40;;;0.40;;
15689;SDS011;7945;48.816;11.506;2022-10-16T13:21:56;0.38;;;0.38;;
15689;SDS011;7945;48.816;11.506;2022-10-16T13:24:36;0.30;;;0.30;;
15689;SDS011;7945;48.816;11.506;2022-10-16T13:27:16;0.30;;;0.30;;
15689;SDS011;7945;48.816;11.506;2022-10-16T13:29:53;0.30;;;0.30;;
15689;SDS011;7945;48.816;11.506;2022-10-16T13:32:27;0.30;;;0.30;;
15689;SDS011;7945;48.816;11.506;2022-10-16T13:34:55;0.22;;;0.22;;
15689;SDS011;7945;48.816;11.506;2022-10-16T13:37:23;0.20;;;0.20;;
15689;SDS011;7945;48.816;11.506;2022-10-16T13:40:01;0.30;;;0.30;;
15689;SDS011;7945;48.816;11.506;2022-10-16T13:42:33;0.30;;;0.30;;
15689;SDS011;7945;48.816;11.506;2022-10-16T13:45:01;0.30;;;0.30;;
15689;SDS011;7945;48.816;11.506;2022-10-16T13:47:29;0.30;;;0.30;;
15689;SDS011;7945;48.816;11.506;2022-10-16T13:50:00;0.30;;;0.30;;
15689;SDS011;7945;48.816;11.506;2022-10-16T13:52:28;0.30;;;0.30;;
15689;SDS011;7945;48.816;11.506;2022-10-16T13:54:55;0.30;;;0.30;;
15689;SDS011;7945;48.816;11.506;2022-10-16T13:57:22;0.20;;;0.20;;
15689;SDS011;7945;48.816;11.506;2022-10-16T13:59:50;0.20;;;0.20;;
15689;SDS011;7945;48.816;11.506;2022-10-16T14:02:20;0.30;;;0.30;;
15689;SDS011;7945;48.816;11.506;2022-10-16T14:04:51;0.30;;;0.30;;
15689;SDS011;7945;48.816;11.506;2022-10-16T14:07:21;0.20;;;0.20;;
15689;SDS011;7945;48.816;11.506;2022-10-16T14:09:51;0.30;;;0.30;;
15689;SDS011;7945;48.816;11.506;2022-10-16T14:12:19;0.20;;;0.20;;
15689;SDS011;7945;48.816;11.506;2022-10-16T14:14:48;0.30;;;0.30;;
15689;SDS011;7945;48.816;11.506;2022-10-16T14:17:20;0.30;;;0.30;;
15689;SDS011;7945;48.816;11.506;2022-10-16T14:19:51;0.30;;;0.30;;
15689;SDS011;7945;48.816;11.506;2022-10-16T14:22:22;0.30;;;0.30;;
15689;SDS011;7945;48.816;11.506;2022-10-16T14:24:54;0.30;;;0.30;;
15689;SDS011;7945;48.816;11.506;2022-10-16T14:30:03;0.45;;;0.45;;
15689;SDS011;7945;48.816;11.506;2022-10-16T14:32:41;0.30;;;0.30;;
15689;SDS011;7945;48.816;11.506;2022-10-16T14:35:22;0.30;;;0.30;;
15689;SDS011;7945;48.816;11.506;2022-10-16T14:37:51;0.30;;;0.30;;
15689;SDS011;7945;48.816;11.506;2022-10-16T14:40:18;0.22;;;0.22;;
15689;SDS011;7945;48.816;11.506;2022-10-16T14:42:46;0.30;;;0.30;;
15689;SDS011;7945;48.816;11.506;2022-10-16T14:45:15;0.30;;;0.30;;
15689;SDS011;7945;48.816;11.506;2022-10-16T14:47:49;0.30;;;0.30;;
15689;SDS011;7945;48.816;11.506;2022-10-16T14:50:18;0.30;;;0.30;;
15689;SDS011;7945;48.816;11.506;2022-10-16T14:52:44;0.30;;;0.30;;
15689;SDS011;7945;48.816;11.506;2022-10-16T14:55:11;0.20;;;0.20;;
15689;SDS011;7945;48.816;11.506;2022-10-16T14:57:38;0.20;;;0.20;;
15689;SDS011;7945;48.816;11.506;2022-10-16T15:00:10;0.30;;;0.30;;
15689;SDS011;7945;48.816;11.506;2022-10-16T15:02:41;0.20;;;0.20;;
15689;SDS011;7945;48.816;11.506;2022-10-16T15:05:15;0.30;;;0.30;;
15689;SDS011;7945;48.816;11.506;2022-10-16T15:07:43;0.30;;;0.30;;
15689;SDS011;7945;48.816;11.506;2022-10-16T15:10:10;0.22;;;0.22;;
15689;SDS011;7945;48.816;11.506;2022-10-16T15:12:38;0.55;;;0.55;;
15689;SDS011;7945;48.816;11.506;2022-10-16T15:15:16;0.30;;;0.30;;
15689;SDS011;7945;48.816;11.506;2022-10-16T15:17:51;0.30;;;0.30;;